sensor_id;sensor_type;location;lat;lon;timestamp;temperature;humidity
20839;DHT22;10580;51.092;6.828;2022-11-02T00:01:43;13.30;1.00
20839;DHT22;10580;51.092;6.828;2022-11-02T00:04:09;13.30;1.00
20839;DHT22;10580;51.092;6.828;2022-11-02T00:06:35;13.20;1.00
20839;DHT22;10580;51.092;6.828;2022-11-02T00:09:00;13.20;1.00
20839;DHT22;10580;51.092;6.828;2022-11-02T00:11:26;13.20;1.00
20839;DHT22;10580;51.092;6.828;2022-11-02T00:13:52;13.20;12.60
20839;DHT22;10580;51.092;6.828;2022-11-02T00:16:18;13.20;14.10
20839;DHT22;10580;51.092;6.828;2022-11-02T00:18:47;13.20;17.10
20839;DHT22;10580;51.092;6.828;2022-11-02T00:21:16;13.20;21.80
20839;DHT22;10580;51.092;6.828;2022-11-02T00:23:43;13.30;21.40
20839;DHT22;10580;51.092;6.828;2022-11-02T00:26:09;13.30;13.30
20839;DHT22;10580;51.092;6.828;2022-11-02T00:28:35;13.30;5.90
20839;DHT22;10580;51.092;6.828;2022-11-02T00:31:07;13.30;11.90
20839;DHT22;10580;51.092;6.828;2022-11-02T00:33:33;13.30;14.80
20839;DHT22;10580;51.092;6.828;2022-11-02T00:35:58;13.30;10.40
20839;DHT22;10580;51.092;6.828;2022-11-02T00:38:24;13.30;9.40
20839;DHT22;10580;51.092;6.828;2022-11-02T00:40:49;13.40;1.00
20839;DHT22;10580;51.092;6.828;2022-11-02T00:43:15;13.50;1.00
20839;DHT22;10580;51.092;6.828;2022-11-02T00:45:40;13.50;1.00
20839;DHT22;10580;51.092;6.828;2022-11-02T00:48:06;13.50;1.00
20839;DHT22;10580;51.092;6.828;2022-11-02T00:50:32;13.50;1.00
20839;DHT22;10580;51.092;6.828;2022-11-02T00:53:00;13.50;1.00
20839;DHT22;10580;51.092;6.828;2022-11-02T00:55:26;13.40;1.00
20839;DHT22;10580;51.092;6.828;2022-11-02T00:57:51;13.40;1.00
20839;DHT22;10580;51.092;6.828;2022-11-02T01:00:18;13.40;1.00
20839;DHT22;10580;51.092;6.828;2022-11-02T01:02:44;13.30;1.70
20839;DHT22;10580;51.092;6.828;2022-11-02T01:05:10;13.20;8.70
20839;DHT22;10580;51.092;6.828;2022-11-02T01:07:36;13.20;9.80
20839;DHT22;10580;51.092;6.828;2022-11-02T01:10:03;13.10;18.30
20839;DHT22;10580;51.092;6.828;2022-11-02T01:12:29;13.10;24.70
20839;DHT22;10580;51.092;6.828;2022-11-02T01:14:54;13.00;31.00
20839;DHT22;10580;51.092;6.828;2022-11-02T01:17:20;12.90;35.60
20839;DHT22;10580;51.092;6.828;2022-11-02T01:19:45;12.90;36.30
20839;DHT22;10580;51.092;6.828;2022-11-02T01:22:11;12.90;40.80
20839;DHT22;10580;51.092;6.828;2022-11-02T01:24:40;12.90;47.90
20839;DHT22;10580;51.092;6.828;2022-11-02T01:27:05;12.90;53.10
20839;DHT22;10580;51.092;6.828;2022-11-02T01:29:31;12.90;54.20
20839;DHT22;10580;51.092;6.828;2022-11-02T01:31:56;13.00;55.90
20839;DHT22;10580;51.092;6.828;2022-11-02T01:34:22;13.00;50.50
20839;DHT22;10580;51.092;6.828;2022-11-02T01:36:48;13.10;47.20
20839;DHT22;10580;51.092;6.828;2022-11-02T01:39:14;13.00;27.30
20839;DHT22;10580;51.092;6.828;2022-11-02T01:41:40;13.10;32.30
20839;DHT22;10580;51.092;6.828;2022-11-02T01:46:52;13.10;19.40
20839;DHT22;10580;51.092;6.828;2022-11-02T01:49:19;13.20;12.30
20839;DHT22;10580;51.092;6.828;2022-11-02T01:51:58;13.20;11.10
20839;DHT22;10580;51.092;6.828;2022-11-02T01:54:30;13.20;9.10
20839;DHT22;10580;51.092;6.828;2022-11-02T01:57:00;13.20;13.20
20839;DHT22;10580;51.092;6.828;2022-11-02T01:59:32;13.30;13.70
20839;DHT22;10580;51.092;6.828;2022-11-02T02:01:59;13.20;16.20
20839;DHT22;10580;51.092;6.828;2022-11-02T02:04:26;13.20;6.70
20839;DHT22;10580;51.092;6.828;2022-11-02T02:06:54;13.20;9.80
20839;DHT22;10580;51.092;6.828;2022-11-02T02:09:22;13.20;9.80
20839;DHT22;10580;51.092;6.828;2022-11-02T02:11:48;13.20;9.40
20839;DHT22;10580;51.092;6.828;2022-11-02T02:14:16;13.10;11.70
20839;DHT22;10580;51.092;6.828;2022-11-02T02:19:43;13.10;7.40
20839;DHT22;10580;51.092;6.828;2022-11-02T02:22:42;13.10;8.30
20839;DHT22;10580;51.092;6.828;2022-11-02T02:28:01;13.10;12.60
20839;DHT22;10580;51.092;6.828;2022-11-02T02:30:30;13.10;13.90
20839;DHT22;10580;51.092;6.828;2022-11-02T02:33:04;13.10;8.90
20839;DHT22;10580;51.092;6.828;2022-11-02T02:35:41;13.10;11.00
20839;DHT22;10580;51.092;6.828;2022-11-02T02:38:11;13.10;11.50
20839;DHT22;10580;51.092;6.828;2022-11-02T02:40:44;13.00;16.10
20839;DHT22;10580;51.092;6.828;2022-11-02T02:43:17;13.00;20.80
20839;DHT22;10580;51.092;6.828;2022-11-02T02:45:49;12.80;25.50
20839;DHT22;10580;51.092;6.828;2022-11-02T02:48:21;12.80;37.80
20839;DHT22;10580;51.092;6.828;2022-11-02T02:50:48;12.70;50.80
20839;DHT22;10580;51.092;6.828;2022-11-02T02:53:16;12.60;69.20
20839;DHT22;10580;51.092;6.828;2022-11-02T02:55:57;12.60;87.00
20839;DHT22;10580;51.092;6.828;2022-11-02T02:58:27;12.50;97.90
20839;DHT22;10580;51.092;6.828;2022-11-02T03:00:56;12.40;99.20
20839;DHT22;10580;51.092;6.828;2022-11-02T03:03:25;12.30;99.90
20839;DHT22;10580;51.092;6.828;2022-11-02T03:08:35;12.30;97.20
20839;DHT22;10580;51.092;6.828;2022-11-02T03:16:06;12.30;99.90
20839;DHT22;10580;51.092;6.828;2022-11-02T03:23:57;12.40;91.00
20839;DHT22;10580;51.092;6.828;2022-11-02T03:29:25;12.70;45.70
20839;DHT22;10580;51.092;6.828;2022-11-02T03:32:08;12.70;46.00
20839;DHT22;10580;51.092;6.828;2022-11-02T03:34:42;12.70;42.80
20839;DHT22;10580;51.092;6.828;2022-11-02T03:37:19;12.80;41.10
20839;DHT22;10580;51.092;6.828;2022-11-02T03:39:51;12.80;42.40
20839;DHT22;10580;51.092;6.828;2022-11-02T03:42:21;12.90;11.60
20839;DHT22;10580;51.092;6.828;2022-11-02T03:44:51;13.00;6.40
20839;DHT22;10580;51.092;6.828;2022-11-02T03:47:20;13.10;1.00
20839;DHT22;10580;51.092;6.828;2022-11-02T03:49:47;13.20;1.00
20839;DHT22;10580;51.092;6.828;2022-11-02T03:52:18;13.20;1.00
20839;DHT22;10580;51.092;6.828;2022-11-02T03:57:40;13.20;1.00
20839;DHT22;10580;51.092;6.828;2022-11-02T04:00:15;13.20;1.00
20839;DHT22;10580;51.092;6.828;2022-11-02T04:02:44;13.10;1.00
20839;DHT22;10580;51.092;6.828;2022-11-02T04:05:11;13.00;1.00
20839;DHT22;10580;51.092;6.828;2022-11-02T04:07:38;13.00;1.00
20839;DHT22;10580;51.092;6.828;2022-11-02T04:10:24;12.90;1.00
20839;DHT22;10580;51.092;6.828;2022-11-02T04:12:49;12.80;1.00
20839;DHT22;10580;51.092;6.828;2022-11-02T04:15:33;12.80;1.00
20839;DHT22;10580;51.092;6.828;2022-11-02T04:17:59;12.80;8.10
20839;DHT22;10580;51.092;6.828;2022-11-02T04:20:47;12.80;20.80
20839;DHT22;10580;51.092;6.828;2022-11-02T04:23:13;12.80;39.90
20839;DHT22;10580;51.092;6.828;2022-11-02T04:25:57;12.90;39.00
20839;DHT22;10580;51.092;6.828;2022-11-02T04:28:22;12.90;43.50
20839;DHT22;10580;51.092;6.828;2022-11-02T04:30:48;12.80;46.20
20839;DHT22;10580;51.092;6.828;2022-11-02T04:33:13;12.80;42.40
20839;DHT22;10580;51.092;6.828;2022-11-02T04:36:01;12.80;49.60
20839;DHT22;10580;51.092;6.828;2022-11-02T04:38:27;12.80;55.40
20839;DHT22;10580;51.092;6.828;2022-11-02T04:41:10;12.80;50.90
20839;DHT22;10580;51.092;6.828;2022-11-02T04:43:54;12.80;52.40
20839;DHT22;10580;51.092;6.828;2022-11-02T04:46:21;12.70;55.10
20839;DHT22;10580;51.092;6.828;2022-11-02T04:48:50;12.70;50.80
20839;DHT22;10580;51.092;6.828;2022-11-02T04:51:16;12.70;56.90
20839;DHT22;10580;51.092;6.828;2022-11-02T04:53:42;12.60;71.40
20839;DHT22;10580;51.092;6.828;2022-11-02T04:56:09;12.70;45.80
20839;DHT22;10580;51.092;6.828;2022-11-02T04:58:35;12.60;37.50
20839;DHT22;10580;51.092;6.828;2022-11-02T05:01:13;12.60;48.50
20839;DHT22;10580;51.092;6.828;2022-11-02T05:03:40;12.60;37.70
20839;DHT22;10580;51.092;6.828;2022-11-02T05:06:06;12.60;43.20
20839;DHT22;10580;51.092;6.828;2022-11-02T05:08:32;12.50;41.30
20839;DHT22;10580;51.092;6.828;2022-11-02T05:10:58;12.50;53.80
20839;DHT22;10580;51.092;6.828;2022-11-02T05:13:25;12.40;46.90
20839;DHT22;10580;51.092;6.828;2022-11-02T05:15:51;12.40;53.60
20839;DHT22;10580;51.092;6.828;2022-11-02T05:18:19;12.40;48.10
20839;DHT22;10580;51.092;6.828;2022-11-02T05:20:52;12.30;61.70
20839;DHT22;10580;51.092;6.828;2022-11-02T05:23:19;12.40;58.80
20839;DHT22;10580;51.092;6.828;2022-11-02T05:25:53;12.40;56.80
20839;DHT22;10580;51.092;6.828;2022-11-02T05:28:19;12.30;51.90
20839;DHT22;10580;51.092;6.828;2022-11-02T05:30:44;12.30;56.10
20839;DHT22;10580;51.092;6.828;2022-11-02T05:33:10;12.30;68.60
20839;DHT22;10580;51.092;6.828;2022-11-02T05:35:35;12.30;58.80
20839;DHT22;10580;51.092;6.828;2022-11-02T05:38:01;12.30;40.90
20839;DHT22;10580;51.092;6.828;2022-11-02T05:40:26;12.30;39.90
20839;DHT22;10580;51.092;6.828;2022-11-02T05:43:00;12.30;39.80
20839;DHT22;10580;51.092;6.828;2022-11-02T05:45:26;12.30;33.50
20839;DHT22;10580;51.092;6.828;2022-11-02T05:47:52;12.30;35.10
20839;DHT22;10580;51.092;6.828;2022-11-02T05:50:18;12.30;39.60
20839;DHT22;10580;51.092;6.828;2022-11-02T05:52:43;12.30;29.50
20839;DHT22;10580;51.092;6.828;2022-11-02T05:55:09;12.20;29.60
20839;DHT22;10580;51.092;6.828;2022-11-02T05:57:34;12.20;24.60
20839;DHT22;10580;51.092;6.828;2022-11-02T06:00:01;12.20;30.30
20839;DHT22;10580;51.092;6.828;2022-11-02T06:02:26;12.30;14.80
20839;DHT22;10580;51.092;6.828;2022-11-02T06:04:52;12.30;14.90
20839;DHT22;10580;51.092;6.828;2022-11-02T06:07:18;12.30;9.70
20839;DHT22;10580;51.092;6.828;2022-11-02T06:09:43;12.30;12.50
20839;DHT22;10580;51.092;6.828;2022-11-02T06:12:09;12.30;15.50
20839;DHT22;10580;51.092;6.828;2022-11-02T06:14:34;12.30;13.10
20839;DHT22;10580;51.092;6.828;2022-11-02T06:17:00;12.30;8.60
20839;DHT22;10580;51.092;6.828;2022-11-02T06:19:25;12.30;4.30
20839;DHT22;10580;51.092;6.828;2022-11-02T06:21:51;12.30;10.80
20839;DHT22;10580;51.092;6.828;2022-11-02T06:24:16;12.20;21.00
20839;DHT22;10580;51.092;6.828;2022-11-02T06:26:42;12.20;26.80
20839;DHT22;10580;51.092;6.828;2022-11-02T06:29:07;12.20;23.40
20839;DHT22;10580;51.092;6.828;2022-11-02T06:31:33;12.20;27.00
20839;DHT22;10580;51.092;6.828;2022-11-02T06:33:58;12.20;27.00
20839;DHT22;10580;51.092;6.828;2022-11-02T06:36:24;12.20;25.60
20839;DHT22;10580;51.092;6.828;2022-11-02T06:38:50;12.20;33.20
20839;DHT22;10580;51.092;6.828;2022-11-02T06:41:16;12.20;29.40
20839;DHT22;10580;51.092;6.828;2022-11-02T06:43:41;12.20;33.80
20839;DHT22;10580;51.092;6.828;2022-11-02T06:46:07;12.20;27.90
20839;DHT22;10580;51.092;6.828;2022-11-02T06:48:33;12.20;30.00
20839;DHT22;10580;51.092;6.828;2022-11-02T06:50:59;12.20;37.50
20839;DHT22;10580;51.092;6.828;2022-11-02T06:53:24;12.20;31.20
20839;DHT22;10580;51.092;6.828;2022-11-02T06:55:58;12.20;33.20
20839;DHT22;10580;51.092;6.828;2022-11-02T06:58:24;12.20;45.10
20839;DHT22;10580;51.092;6.828;2022-11-02T07:00:59;12.20;37.10
20839;DHT22;10580;51.092;6.828;2022-11-02T07:03:26;12.10;40.00
20839;DHT22;10580;51.092;6.828;2022-11-02T07:05:52;12.20;43.20
20839;DHT22;10580;51.092;6.828;2022-11-02T07:08:18;12.20;34.50
20839;DHT22;10580;51.092;6.828;2022-11-02T07:10:44;12.20;30.50
20839;DHT22;10580;51.092;6.828;2022-11-02T07:13:10;12.20;26.90
20839;DHT22;10580;51.092;6.828;2022-11-02T07:15:36;12.20;26.00
20839;DHT22;10580;51.092;6.828;2022-11-02T07:18:02;12.20;33.70
20839;DHT22;10580;51.092;6.828;2022-11-02T07:20:27;12.20;31.40
20839;DHT22;10580;51.092;6.828;2022-11-02T07:22:56;12.30;21.70
20839;DHT22;10580;51.092;6.828;2022-11-02T07:25:23;12.30;18.70
20839;DHT22;10580;51.092;6.828;2022-11-02T07:27:49;12.40;11.40
20839;DHT22;10580;51.092;6.828;2022-11-02T07:30:15;12.40;9.00
20839;DHT22;10580;51.092;6.828;2022-11-02T07:32:42;12.40;7.00
20839;DHT22;10580;51.092;6.828;2022-11-02T07:35:09;12.40;12.60
20839;DHT22;10580;51.092;6.828;2022-11-02T07:37:35;12.50;11.80
20839;DHT22;10580;51.092;6.828;2022-11-02T07:40:01;12.40;2.90
20839;DHT22;10580;51.092;6.828;2022-11-02T07:42:26;12.50;8.90
20839;DHT22;10580;51.092;6.828;2022-11-02T07:44:52;12.50;1.00
20839;DHT22;10580;51.092;6.828;2022-11-02T07:47:17;12.60;1.00
20839;DHT22;10580;51.092;6.828;2022-11-02T07:49:43;12.60;1.00
20839;DHT22;10580;51.092;6.828;2022-11-02T07:52:09;12.70;1.00
20839;DHT22;10580;51.092;6.828;2022-11-02T07:54:34;12.70;1.00
20839;DHT22;10580;51.092;6.828;2022-11-02T07:57:00;12.80;1.00
20839;DHT22;10580;51.092;6.828;2022-11-02T07:59:26;12.80;1.00
20839;DHT22;10580;51.092;6.828;2022-11-02T08:01:52;12.90;1.00
20839;DHT22;10580;51.092;6.828;2022-11-02T08:04:17;13.00;1.00
20839;DHT22;10580;51.092;6.828;2022-11-02T08:06:43;13.20;1.00
20839;DHT22;10580;51.092;6.828;2022-11-02T08:09:08;13.40;1.00
20839;DHT22;10580;51.092;6.828;2022-11-02T08:11:34;13.30;1.00
20839;DHT22;10580;51.092;6.828;2022-11-02T08:14:00;13.30;1.00
20839;DHT22;10580;51.092;6.828;2022-11-02T08:16:27;13.30;1.00
20839;DHT22;10580;51.092;6.828;2022-11-02T08:18:52;13.40;1.00
20839;DHT22;10580;51.092;6.828;2022-11-02T08:21:18;13.40;1.00
20839;DHT22;10580;51.092;6.828;2022-11-02T08:23:44;13.70;1.00
20839;DHT22;10580;51.092;6.828;2022-11-02T08:26:10;14.00;1.00
20839;DHT22;10580;51.092;6.828;2022-11-02T08:28:36;14.30;1.00
20839;DHT22;10580;51.092;6.828;2022-11-02T08:31:05;14.90;1.00
20839;DHT22;10580;51.092;6.828;2022-11-02T08:33:31;15.30;1.00
20839;DHT22;10580;51.092;6.828;2022-11-02T08:36:02;15.80;1.00
20839;DHT22;10580;51.092;6.828;2022-11-02T08:38:29;16.30;99.90
20839;DHT22;10580;51.092;6.828;2022-11-02T08:40:54;16.80;99.90
20839;DHT22;10580;51.092;6.828;2022-11-02T08:43:20;16.10;99.90
20839;DHT22;10580;51.092;6.828;2022-11-02T08:45:47;16.30;99.90
20839;DHT22;10580;51.092;6.828;2022-11-02T08:48:13;16.00;99.90
20839;DHT22;10580;51.092;6.828;2022-11-02T08:50:38;15.80;99.90
20839;DHT22;10580;51.092;6.828;2022-11-02T08:53:04;15.90;1.00
20839;DHT22;10580;51.092;6.828;2022-11-02T08:55:30;15.40;1.00
20839;DHT22;10580;51.092;6.828;2022-11-02T08:57:57;15.00;1.00
20839;DHT22;10580;51.092;6.828;2022-11-02T09:00:25;14.90;1.00
20839;DHT22;10580;51.092;6.828;2022-11-02T09:03:01;14.70;1.00
20839;DHT22;10580;51.092;6.828;2022-11-02T09:05:32;15.00;1.00
20839;DHT22;10580;51.092;6.828;2022-11-02T09:07:59;15.40;1.00
20839;DHT22;10580;51.092;6.828;2022-11-02T09:10:27;15.40;1.00
20839;DHT22;10580;51.092;6.828;2022-11-02T09:12:53;15.80;1.00
20839;DHT22;10580;51.092;6.828;2022-11-02T09:15:19;16.30;99.90
20839;DHT22;10580;51.092;6.828;2022-11-02T09:17:48;16.60;99.90
20839;DHT22;10580;51.092;6.828;2022-11-02T09:20:15;16.70;99.90
20839;DHT22;10580;51.092;6.828;2022-11-02T09:22:42;16.70;99.90
20839;DHT22;10580;51.092;6.828;2022-11-02T09:25:07;16.20;99.90
20839;DHT22;10580;51.092;6.828;2022-11-02T09:27:33;16.30;99.90
20839;DHT22;10580;51.092;6.828;2022-11-02T09:29:59;16.20;76.60
20839;DHT22;10580;51.092;6.828;2022-11-02T09:32:24;16.40;99.90
20839;DHT22;10580;51.092;6.828;2022-11-02T09:34:50;16.10;94.80
20839;DHT22;10580;51.092;6.828;2022-11-02T09:37:16;15.60;99.90
20839;DHT22;10580;51.092;6.828;2022-11-02T09:39:42;15.50;99.90
20839;DHT22;10580;51.092;6.828;2022-11-02T09:42:30;15.40;99.90
20839;DHT22;10580;51.092;6.828;2022-11-02T09:44:58;15.40;99.90
20839;DHT22;10580;51.092;6.828;2022-11-02T09:47:27;15.50;99.90
20839;DHT22;10580;51.092;6.828;2022-11-02T09:49:54;15.50;99.90
20839;DHT22;10580;51.092;6.828;2022-11-02T09:52:27;15.40;99.90
20839;DHT22;10580;51.092;6.828;2022-11-02T09:54:58;15.40;99.90
20839;DHT22;10580;51.092;6.828;2022-11-02T09:57:29;15.30;99.90
20839;DHT22;10580;51.092;6.828;2022-11-02T09:59:56;15.70;99.90
20839;DHT22;10580;51.092;6.828;2022-11-02T10:13:02;16.50;99.90
20839;DHT22;10580;51.092;6.828;2022-11-02T10:15:31;16.20;99.90
20839;DHT22;10580;51.092;6.828;2022-11-02T10:18:00;16.00;1.00
20839;DHT22;10580;51.092;6.828;2022-11-02T10:20:37;15.90;1.00
20839;DHT22;10580;51.092;6.828;2022-11-02T10:23:07;15.90;1.00
20839;DHT22;10580;51.092;6.828;2022-11-02T10:25:36;15.60;1.00
20839;DHT22;10580;51.092;6.828;2022-11-02T10:28:13;15.10;99.90
20839;DHT22;10580;51.092;6.828;2022-11-02T10:30:41;14.80;99.90
20839;DHT22;10580;51.092;6.828;2022-11-02T10:33:16;14.70;99.90
20839;DHT22;10580;51.092;6.828;2022-11-02T10:35:54;14.70;1.00
20839;DHT22;10580;51.092;6.828;2022-11-02T10:41:04;14.70;1.00
20839;DHT22;10580;51.092;6.828;2022-11-02T10:51:31;14.60;1.00
20839;DHT22;10580;51.092;6.828;2022-11-02T10:53:57;14.60;1.00
20839;DHT22;10580;51.092;6.828;2022-11-02T11:01:23;14.50;1.00
20839;DHT22;10580;51.092;6.828;2022-11-02T11:04:00;14.60;1.00
20839;DHT22;10580;51.092;6.828;2022-11-02T11:06:46;14.70;1.00
20839;DHT22;10580;51.092;6.828;2022-11-02T11:15:22;14.80;1.00
20839;DHT22;10580;51.092;6.828;2022-11-02T11:17:49;14.80;1.00
20839;DHT22;10580;51.092;6.828;2022-11-02T11:20:35;14.80;1.00
20839;DHT22;10580;51.092;6.828;2022-11-02T11:23:26;14.80;1.00
20839;DHT22;10580;51.092;6.828;2022-11-02T11:28:54;15.10;99.90
20839;DHT22;10580;51.092;6.828;2022-11-02T11:31:29;15.50;99.90
20839;DHT22;10580;51.092;6.828;2022-11-02T11:33:56;15.60;1.00
20839;DHT22;10580;51.092;6.828;2022-11-02T11:38:58;15.80;1.00
20839;DHT22;10580;51.092;6.828;2022-11-02T11:41:24;15.80;99.90
20839;DHT22;10580;51.092;6.828;2022-11-02T11:43:51;15.90;99.90
20839;DHT22;10580;51.092;6.828;2022-11-02T11:46:17;15.80;99.90
20839;DHT22;10580;51.092;6.828;2022-11-02T11:48:55;16.00;99.90
20839;DHT22;10580;51.092;6.828;2022-11-02T11:51:30;16.00;1.00
20839;DHT22;10580;51.092;6.828;2022-11-02T11:56:29;16.00;1.00
20839;DHT22;10580;51.092;6.828;2022-11-02T11:58:56;16.10;99.90
20839;DHT22;10580;51.092;6.828;2022-11-02T12:01:22;15.90;99.90
20839;DHT22;10580;51.092;6.828;2022-11-02T12:04:00;15.80;1.00
20839;DHT22;10580;51.092;6.828;2022-11-02T12:06:41;15.90;99.90
20839;DHT22;10580;51.092;6.828;2022-11-02T12:09:30;15.90;99.90
20839;DHT22;10580;51.092;6.828;2022-11-02T12:20:23;16.20;99.90
20839;DHT22;10580;51.092;6.828;2022-11-02T12:28:44;16.50;1.00
20839;DHT22;10580;51.092;6.828;2022-11-02T12:42:32;16.30;88.10
20839;DHT22;10580;51.092;6.828;2022-11-02T12:50:19;16.60;1.00
20839;DHT22;10580;51.092;6.828;2022-11-02T12:53:01;16.60;99.90
20839;DHT22;10580;51.092;6.828;2022-11-02T12:55:33;16.60;1.00
20839;DHT22;10580;51.092;6.828;2022-11-02T12:58:10;16.90;1.00
20839;DHT22;10580;51.092;6.828;2022-11-02T13:00:40;16.90;1.00
20839;DHT22;10580;51.092;6.828;2022-11-02T13:05:53;16.70;1.00
20839;DHT22;10580;51.092;6.828;2022-11-02T13:08:29;16.60;1.00
20839;DHT22;10580;51.092;6.828;2022-11-02T13:10:59;16.80;99.90
20839;DHT22;10580;51.092;6.828;2022-11-02T13:13:39;17.30;1.00
20839;DHT22;10580;51.092;6.828;2022-11-02T13:16:08;17.90;99.90
20839;DHT22;10580;51.092;6.828;2022-11-02T13:18:47;18.30;1.00
20839;DHT22;10580;51.092;6.828;2022-11-02T13:21:17;18.90;1.00
20839;DHT22;10580;51.092;6.828;2022-11-02T13:23:53;18.80;99.90
20839;DHT22;10580;51.092;6.828;2022-11-02T13:26:36;19.10;99.90
20839;DHT22;10580;51.092;6.828;2022-11-02T13:29:38;18.70;99.90
20839;DHT22;10580;51.092;6.828;2022-11-02T13:32:34;17.60;99.90
20839;DHT22;10580;51.092;6.828;2022-11-02T13:40:43;16.80;99.90
20839;DHT22;10580;51.092;6.828;2022-11-02T13:46:08;17.60;1.00
20839;DHT22;10580;51.092;6.828;2022-11-02T13:49:00;18.20;1.00
20839;DHT22;10580;51.092;6.828;2022-11-02T13:51:28;18.10;99.90
20839;DHT22;10580;51.092;6.828;2022-11-02T13:54:01;18.10;99.90
20839;DHT22;10580;51.092;6.828;2022-11-02T13:56:28;17.90;99.90
20839;DHT22;10580;51.092;6.828;2022-11-02T13:59:05;17.60;1.00
20839;DHT22;10580;51.092;6.828;2022-11-02T14:01:50;17.30;99.90
20839;DHT22;10580;51.092;6.828;2022-11-02T14:04:18;16.90;99.90
20839;DHT22;10580;51.092;6.828;2022-11-02T14:06:57;16.50;1.00
20839;DHT22;10580;51.092;6.828;2022-11-02T14:09:29;16.20;1.00
20839;DHT22;10580;51.092;6.828;2022-11-02T14:20:43;15.80;1.00
20839;DHT22;10580;51.092;6.828;2022-11-02T14:23:34;15.60;99.90
20839;DHT22;10580;51.092;6.828;2022-11-02T14:26:00;15.50;1.00
20839;DHT22;10580;51.092;6.828;2022-11-02T14:28:29;15.40;1.00
20839;DHT22;10580;51.092;6.828;2022-11-02T14:42:31;15.10;1.00
20839;DHT22;10580;51.092;6.828;2022-11-02T14:45:26;15.00;1.00
20839;DHT22;10580;51.092;6.828;2022-11-02T14:48:01;15.00;99.90
20839;DHT22;10580;51.092;6.828;2022-11-02T14:50:28;14.90;1.00
20839;DHT22;10580;51.092;6.828;2022-11-02T14:55:28;14.70;1.00
20839;DHT22;10580;51.092;6.828;2022-11-02T14:58:15;14.70;93.60
20839;DHT22;10580;51.092;6.828;2022-11-02T15:08:26;14.30;1.00
20839;DHT22;10580;51.092;6.828;2022-11-02T15:10:53;14.20;1.00
20839;DHT22;10580;51.092;6.828;2022-11-02T15:26:30;13.70;99.90
20839;DHT22;10580;51.092;6.828;2022-11-02T15:29:00;13.60;99.90
20839;DHT22;10580;51.092;6.828;2022-11-02T15:31:27;13.50;1.00
20839;DHT22;10580;51.092;6.828;2022-11-02T15:34:03;13.50;1.00
20839;DHT22;10580;51.092;6.828;2022-11-02T15:36:36;13.40;1.00
20839;DHT22;10580;51.092;6.828;2022-11-02T15:39:04;13.30;1.00
20839;DHT22;10580;51.092;6.828;2022-11-02T15:41:42;13.30;1.00
20839;DHT22;10580;51.092;6.828;2022-11-02T16:01:17;13.00;1.00
20839;DHT22;10580;51.092;6.828;2022-11-02T16:03:51;13.00;1.00
20839;DHT22;10580;51.092;6.828;2022-11-02T16:06:43;13.00;1.00
20839;DHT22;10580;51.092;6.828;2022-11-02T16:09:36;12.90;1.00
20839;DHT22;10580;51.092;6.828;2022-11-02T16:12:11;12.90;1.00
20839;DHT22;10580;51.092;6.828;2022-11-02T16:14:38;12.90;1.00
20839;DHT22;10580;51.092;6.828;2022-11-02T16:17:04;12.80;1.00
20839;DHT22;10580;51.092;6.828;2022-11-02T16:19:30;12.80;1.00
20839;DHT22;10580;51.092;6.828;2022-11-02T16:21:56;12.80;1.00
20839;DHT22;10580;51.092;6.828;2022-11-02T16:24:21;12.90;1.00
20839;DHT22;10580;51.092;6.828;2022-11-02T16:26:48;12.90;1.00
20839;DHT22;10580;51.092;6.828;2022-11-02T16:29:32;12.90;1.00
20839;DHT22;10580;51.092;6.828;2022-11-02T16:31:57;12.80;1.00
20839;DHT22;10580;51.092;6.828;2022-11-02T16:34:27;12.80;1.00
20839;DHT22;10580;51.092;6.828;2022-11-02T16:36:53;12.70;1.00
20839;DHT22;10580;51.092;6.828;2022-11-02T16:39:23;12.60;1.00
20839;DHT22;10580;51.092;6.828;2022-11-02T16:41:52;12.60;1.00
20839;DHT22;10580;51.092;6.828;2022-11-02T16:44:27;12.60;1.00
20839;DHT22;10580;51.092;6.828;2022-11-02T16:52:21;12.50;1.00
20839;DHT22;10580;51.092;6.828;2022-11-02T16:54:47;12.50;1.00
20839;DHT22;10580;51.092;6.828;2022-11-02T16:59:53;12.50;1.00
20839;DHT22;10580;51.092;6.828;2022-11-02T17:02:36;12.40;1.00
20839;DHT22;10580;51.092;6.828;2022-11-02T17:05:03;12.40;1.00
20839;DHT22;10580;51.092;6.828;2022-11-02T17:07:33;12.30;1.00
20839;DHT22;10580;51.092;6.828;2022-11-02T17:10:01;12.20;1.00
20839;DHT22;10580;51.092;6.828;2022-11-02T17:12:36;12.20;1.00
20839;DHT22;10580;51.092;6.828;2022-11-02T17:15:17;12.30;1.00
20839;DHT22;10580;51.092;6.828;2022-11-02T17:17:43;12.20;1.00
20839;DHT22;10580;51.092;6.828;2022-11-02T17:23:01;12.20;1.00
20839;DHT22;10580;51.092;6.828;2022-11-02T17:25:30;12.20;1.00
20839;DHT22;10580;51.092;6.828;2022-11-02T17:28:01;12.20;1.00
20839;DHT22;10580;51.092;6.828;2022-11-02T17:35:48;12.20;1.00
20839;DHT22;10580;51.092;6.828;2022-11-02T17:38:14;12.20;1.00
20839;DHT22;10580;51.092;6.828;2022-11-02T17:40:40;12.10;1.00
20839;DHT22;10580;51.092;6.828;2022-11-02T17:43:06;12.10;1.00
20839;DHT22;10580;51.092;6.828;2022-11-02T17:45:33;12.20;1.00
20839;DHT22;10580;51.092;6.828;2022-11-02T17:48:07;12.10;1.00
20839;DHT22;10580;51.092;6.828;2022-11-02T17:50:36;12.20;1.00
20839;DHT22;10580;51.092;6.828;2022-11-02T17:53:03;12.30;1.00
20839;DHT22;10580;51.092;6.828;2022-11-02T17:55:32;12.20;1.00
20839;DHT22;10580;51.092;6.828;2022-11-02T17:57:59;12.20;1.00
20839;DHT22;10580;51.092;6.828;2022-11-02T18:00:26;12.30;1.00
20839;DHT22;10580;51.092;6.828;2022-11-02T18:02:58;12.20;1.00
20839;DHT22;10580;51.092;6.828;2022-11-02T18:05:29;12.20;1.00
20839;DHT22;10580;51.092;6.828;2022-11-02T18:07:57;12.10;1.00
20839;DHT22;10580;51.092;6.828;2022-11-02T18:10:25;12.20;1.00
20839;DHT22;10580;51.092;6.828;2022-11-02T18:12:53;12.20;1.00
20839;DHT22;10580;51.092;6.828;2022-11-02T18:15:27;12.20;1.00
20839;DHT22;10580;51.092;6.828;2022-11-02T18:17:55;12.20;1.00
20839;DHT22;10580;51.092;6.828;2022-11-02T18:20:23;12.10;1.00
20839;DHT22;10580;51.092;6.828;2022-11-02T18:22:54;12.10;1.00
20839;DHT22;10580;51.092;6.828;2022-11-02T18:25:22;12.10;1.00
20839;DHT22;10580;51.092;6.828;2022-11-02T18:27:48;12.10;1.00
20839;DHT22;10580;51.092;6.828;2022-11-02T18:30:17;12.10;1.00
20839;DHT22;10580;51.092;6.828;2022-11-02T18:32:46;12.00;1.00
20839;DHT22;10580;51.092;6.828;2022-11-02T18:35:17;12.00;1.00
20839;DHT22;10580;51.092;6.828;2022-11-02T18:37:46;12.10;1.00
20839;DHT22;10580;51.092;6.828;2022-11-02T18:40:17;12.00;1.00
20839;DHT22;10580;51.092;6.828;2022-11-02T18:42:48;12.10;1.00
20839;DHT22;10580;51.092;6.828;2022-11-02T18:45:17;12.00;1.00
20839;DHT22;10580;51.092;6.828;2022-11-02T18:47:50;12.00;1.00
20839;DHT22;10580;51.092;6.828;2022-11-02T18:50:19;12.00;1.00
20839;DHT22;10580;51.092;6.828;2022-11-02T18:52:49;12.00;1.00
20839;DHT22;10580;51.092;6.828;2022-11-02T18:55:17;12.00;1.00
20839;DHT22;10580;51.092;6.828;2022-11-02T18:57:46;12.00;1.00
20839;DHT22;10580;51.092;6.828;2022-11-02T19:00:17;12.00;1.00